createdAt,value
2023-02-12T00:00:53.245Z,29.83
2023-02-12T00:03:19.897Z,32.10
2023-02-12T00:05:46.502Z,31.70
2023-02-12T00:08:14.277Z,29.97
2023-02-12T00:10:43.156Z,28.40
2023-02-12T00:13:13.399Z,26.67
2023-02-12T00:15:43.548Z,29.23
2023-02-12T00:18:10.733Z,27.17
2023-02-12T00:20:38.848Z,28.20
2023-02-12T00:23:06.272Z,27.57
2023-02-12T00:25:33.884Z,28.43
2023-02-12T00:28:00.540Z,28.60
2023-02-12T00:30:27.382Z,30.63
2023-02-12T00:32:55.207Z,29.43
2023-02-12T00:35:21.807Z,30.00
2023-02-12T00:37:49.995Z,28.17
2023-02-12T00:40:16.676Z,27.70
2023-02-12T00:42:43.277Z,25.00
2023-02-12T00:45:10.190Z,26.27
2023-02-12T00:47:36.771Z,31.23
2023-02-12T00:50:03.535Z,36.00
2023-02-12T00:52:30.152Z,35.57
2023-02-12T00:54:57.635Z,34.33
2023-02-12T00:57:24.225Z,29.80
2023-02-12T00:59:50.889Z,25.67
2023-02-12T01:02:18.151Z,25.43
2023-02-12T01:04:45.723Z,28.13
2023-02-12T01:07:12.300Z,25.93
2023-02-12T01:09:38.993Z,28.17
2023-02-12T01:12:06.262Z,30.00
2023-02-12T01:14:33.116Z,30.70
2023-02-12T01:16:59.687Z,34.37
2023-02-12T01:19:26.327Z,33.40
2023-02-12T01:21:52.933Z,25.93
2023-02-12T01:24:19.523Z,29.37
2023-02-12T01:26:46.106Z,26.33
2023-02-12T01:29:12.694Z,29.70
2023-02-12T01:31:39.743Z,25.87
2023-02-12T01:34:07.475Z,26.70
2023-02-12T01:36:35.307Z,28.90
2023-02-12T01:39:03.072Z,29.03
2023-02-12T01:41:36.190Z,28.20
2023-02-12T01:44:21.399Z,26.33
2023-02-12T01:46:57.005Z,30.03
2023-02-12T01:49:30.759Z,30.47
2023-02-12T01:52:13.302Z,34.63
2023-02-12T01:54:40.563Z,35.27
2023-02-12T01:57:09.431Z,28.20
2023-02-12T01:59:38.636Z,29.57
2023-02-12T02:02:05.708Z,25.47
2023-02-12T02:04:48.541Z,25.60
2023-02-12T02:07:15.284Z,25.67
2023-02-12T02:09:42.509Z,27.90
2023-02-12T02:12:27.741Z,26.80
2023-02-12T02:15:00.183Z,28.73
2023-02-12T02:17:38.831Z,28.47
2023-02-12T02:20:19.306Z,26.57
2023-02-12T02:23:13.008Z,26.53
2023-02-12T02:26:17.078Z,28.50
2023-02-12T02:28:58.162Z,26.90
2023-02-12T02:31:35.852Z,27.13
2023-02-12T02:34:28.996Z,29.30
2023-02-12T02:37:16.018Z,30.97
2023-02-12T02:39:54.046Z,29.40
2023-02-12T02:42:35.331Z,29.80
2023-02-12T02:45:26.438Z,33.63
2023-02-12T02:47:58.744Z,30.10
2023-02-12T02:50:29.232Z,30.03
2023-02-12T02:53:10.423Z,31.97
2023-02-12T02:55:43.002Z,34.60
2023-02-12T02:58:16.194Z,33.90
2023-02-12T03:00:48.916Z,30.00
2023-02-12T03:03:24.015Z,29.40
2023-02-12T03:05:55.410Z,27.20
2023-02-12T03:08:36.180Z,31.47
2023-02-12T03:11:15.019Z,28.00
2023-02-12T03:14:04.803Z,31.87
2023-02-12T03:16:39.729Z,33.63
2023-02-12T03:19:15.445Z,31.77
2023-02-12T03:21:50.081Z,32.70
2023-02-12T03:24:24.000Z,29.80
2023-02-12T03:27:02.494Z,28.93
2023-02-12T03:29:29.236Z,27.40
2023-02-12T03:32:27.747Z,27.43
2023-02-12T03:35:08.823Z,29.47
2023-02-12T03:38:16.627Z,29.33
2023-02-12T03:40:55.503Z,28.90
2023-02-12T03:43:30.337Z,33.13
2023-02-12T03:46:15.310Z,29.23
2023-02-12T03:48:52.865Z,31.17
2023-02-12T03:51:32.740Z,41.13
2023-02-12T03:54:01.354Z,40.93
2023-02-12T03:56:54.190Z,47.37
2023-02-12T03:59:23.800Z,30.03
2023-02-12T04:01:53.538Z,27.00
2023-02-12T04:04:21.150Z,40.33
2023-02-12T04:06:50.477Z,30.37
2023-02-12T04:09:17.670Z,31.10
2023-02-12T04:11:59.242Z,54.10
2023-02-12T04:14:34.776Z,55.07
2023-02-12T04:17:29.103Z,61.50
2023-02-12T04:20:21.964Z,60.77
2023-02-12T04:22:59.687Z,66.27
2023-02-12T04:25:51.133Z,62.47
2023-02-12T04:28:20.376Z,46.50
2023-02-12T04:31:01.392Z,45.13
2023-02-12T04:33:43.672Z,62.20
2023-02-12T04:36:18.170Z,59.13
2023-02-12T04:38:51.754Z,87.87
2023-02-12T04:41:18.627Z,75.67
2023-02-12T04:43:45.559Z,52.23
2023-02-12T04:46:12.136Z,43.93
2023-02-12T04:48:51.980Z,39.93
2023-02-12T04:51:18.598Z,35.87
2023-02-12T04:53:45.199Z,41.60
2023-02-12T04:56:13.291Z,44.57
2023-02-12T04:58:41.342Z,38.03
2023-02-12T05:01:09.166Z,45.03
2023-02-12T05:03:36.465Z,51.93
2023-02-12T05:06:05.213Z,43.70
2023-02-12T05:08:32.025Z,49.40
2023-02-12T05:11:04.249Z,57.73
2023-02-12T05:13:30.883Z,64.40
2023-02-12T05:15:57.705Z,75.43
2023-02-12T05:18:24.916Z,71.87
2023-02-12T05:21:03.479Z,75.93
2023-02-12T05:23:31.855Z,64.87
2023-02-12T05:25:59.545Z,65.93
2023-02-12T05:28:26.837Z,63.93
2023-02-12T05:30:53.503Z,67.47
2023-02-12T05:33:20.228Z,74.30
2023-02-12T05:35:46.802Z,78.40
2023-02-12T05:38:13.409Z,79.87
2023-02-12T05:40:40.372Z,73.77
2023-02-12T05:43:06.969Z,75.93
2023-02-12T05:45:33.557Z,94.40
2023-02-12T05:48:00.203Z,86.70
2023-02-12T05:50:26.801Z,81.07
2023-02-12T05:53:01.173Z,55.30
2023-02-12T05:55:27.852Z,47.60
2023-02-12T05:57:54.896Z,55.03
2023-02-12T06:00:21.941Z,54.23
2023-02-12T06:02:48.529Z,51.20
2023-02-12T06:05:15.189Z,54.10
2023-02-12T06:07:41.812Z,58.20
2023-02-12T06:10:08.996Z,56.57
2023-02-12T06:12:35.563Z,61.03
2023-02-12T06:15:02.156Z,68.17
2023-02-12T06:17:28.764Z,60.27
2023-02-12T06:19:55.352Z,69.70
2023-02-12T06:22:21.921Z,65.00
2023-02-12T06:24:48.506Z,68.07
2023-02-12T06:27:15.071Z,55.27
2023-02-12T06:29:41.779Z,61.97
2023-02-12T06:32:08.594Z,53.90
2023-02-12T06:34:35.481Z,56.03
2023-02-12T06:37:02.098Z,50.70
2023-02-12T06:39:28.715Z,54.40
2023-02-12T06:41:55.312Z,54.70
2023-02-12T06:44:21.942Z,55.13
2023-02-12T06:46:48.771Z,57.20
2023-02-12T06:49:16.285Z,63.07
2023-02-12T06:51:42.977Z,61.93
2023-02-12T06:54:17.859Z,57.07
2023-02-12T06:56:45.036Z,57.20
2023-02-12T06:59:15.345Z,49.17
2023-02-12T07:01:41.982Z,52.73
2023-02-12T07:04:09.123Z,50.47
2023-02-12T07:06:36.492Z,55.27
2023-02-12T07:09:04.815Z,48.97
2023-02-12T07:11:36.856Z,51.67
2023-02-12T07:14:04.624Z,53.70
2023-02-12T07:16:31.318Z,55.80
2023-02-12T07:18:58.207Z,57.03
2023-02-12T07:21:24.842Z,60.70
2023-02-12T07:23:52.991Z,57.97
2023-02-12T07:26:21.208Z,57.73
2023-02-12T07:28:48.581Z,58.37
2023-02-12T07:31:21.179Z,52.97
2023-02-12T07:33:48.777Z,44.33
2023-02-12T07:36:18.277Z,45.80
2023-02-12T07:38:45.714Z,45.13
2023-02-12T07:41:23.186Z,44.47
2023-02-12T07:43:54.571Z,46.43
2023-02-12T07:46:29.899Z,44.17
2023-02-12T07:49:02.757Z,43.80
2023-02-12T07:51:29.377Z,43.87
2023-02-12T07:53:56.665Z,44.13
2023-02-12T07:56:29.577Z,40.93
2023-02-12T07:58:56.870Z,43.40
2023-02-12T08:01:31.123Z,44.93
2023-02-12T08:04:00.598Z,43.83
2023-02-12T08:06:29.813Z,45.80
2023-02-12T08:08:59.541Z,41.20
2023-02-12T08:11:27.975Z,43.47
2023-02-12T08:13:55.041Z,46.23
2023-02-12T08:16:24.458Z,44.53
2023-02-12T08:18:52.017Z,44.03
2023-02-12T08:21:25.062Z,43.47
2023-02-12T08:23:53.453Z,44.30
2023-02-12T08:26:39.581Z,41.37
2023-02-12T08:29:09.626Z,39.13
2023-02-12T08:31:39.073Z,43.03
2023-02-12T08:34:06.128Z,42.23
2023-02-12T08:36:40.191Z,38.83
2023-02-12T08:39:08.052Z,41.67
2023-02-12T08:41:35.315Z,40.40
2023-02-12T08:44:04.267Z,39.47
2023-02-12T08:46:34.181Z,39.20
2023-02-12T08:49:06.812Z,38.87
2023-02-12T08:51:35.892Z,43.93
2023-02-12T08:54:05.848Z,37.87
2023-02-12T08:56:34.175Z,42.00
2023-02-12T08:59:02.613Z,39.40
2023-02-12T09:01:33.435Z,42.90
2023-02-12T09:04:00.693Z,39.07
2023-02-12T09:06:28.273Z,38.53
2023-02-12T09:08:55.860Z,42.20
2023-02-12T09:11:30.505Z,36.20
2023-02-12T09:14:03.177Z,33.70
2023-02-12T09:16:31.675Z,36.13
2023-02-12T09:18:58.438Z,33.93
2023-02-12T09:21:25.566Z,36.17
2023-02-12T09:23:52.524Z,38.57
2023-02-12T09:26:22.100Z,36.13
2023-02-12T09:28:50.376Z,34.63
2023-02-12T09:31:29.258Z,32.83
2023-02-12T09:33:59.670Z,32.85
2023-02-12T09:36:26.611Z,32.23
2023-02-12T09:38:54.264Z,34.17
2023-02-12T09:42:04.796Z,35.37
2023-02-12T09:44:50.379Z,36.13
2023-02-12T09:47:31.080Z,36.33
2023-02-12T09:50:15.955Z,41.60
2023-02-12T09:52:43.093Z,33.40
2023-02-12T09:55:16.271Z,28.90
2023-02-12T09:57:43.713Z,34.93
2023-02-12T10:00:16.369Z,34.40
2023-02-12T10:02:42.997Z,40.10
2023-02-12T10:05:38.616Z,35.90
2023-02-12T10:08:36.140Z,33.35
2023-02-12T10:11:41.773Z,34.73
2023-02-12T10:14:27.197Z,33.50
2023-02-12T10:17:07.861Z,33.47
2023-02-12T10:19:50.693Z,29.20
2023-02-12T10:22:26.254Z,28.60
2023-02-12T10:25:19.931Z,33.33
2023-02-12T10:27:52.038Z,33.33
2023-02-12T10:30:24.649Z,32.03
2023-02-12T10:32:58.833Z,32.80
2023-02-12T10:35:25.990Z,36.42
2023-02-12T10:37:59.775Z,34.08
2023-02-12T10:40:30.303Z,35.70
2023-02-12T10:42:57.921Z,31.83
2023-02-12T10:45:26.672Z,27.40
2023-02-12T10:48:05.794Z,28.17
2023-02-12T10:50:48.811Z,28.35
2023-02-12T10:53:20.917Z,26.50
2023-02-12T10:55:48.184Z,27.20
2023-02-12T10:58:21.910Z,28.27
2023-02-12T11:00:57.117Z,23.40
2023-02-12T11:03:29.035Z,23.00
2023-02-12T11:05:56.595Z,22.00
2023-02-12T11:08:29.089Z,24.30
2023-02-12T11:10:56.080Z,20.40
2023-02-12T11:13:26.245Z,19.08
2023-02-12T11:15:53.935Z,20.52
2023-02-12T11:18:32.735Z,18.55
2023-02-12T11:21:11.468Z,19.02
2023-02-12T11:23:43.236Z,16.13
2023-02-12T11:26:18.824Z,17.83
2023-02-12T11:29:01.549Z,15.45
2023-02-12T11:31:30.781Z,13.85
2023-02-12T11:34:12.719Z,10.40
2023-02-12T11:36:46.480Z,10.75
2023-02-12T11:39:50.351Z,14.48
2023-02-12T11:42:25.820Z,15.55
2023-02-12T11:44:59.888Z,13.63
2023-02-12T11:47:33.977Z,16.17
2023-02-12T11:50:03.505Z,14.02
2023-02-12T11:52:33.804Z,14.98
2023-02-12T11:55:06.852Z,13.63
2023-02-12T11:57:39.215Z,15.82
2023-02-12T12:00:15.837Z,14.57
2023-02-12T12:02:55.050Z,13.43
2023-02-12T12:05:22.766Z,16.25
2023-02-12T12:07:57.058Z,16.05
2023-02-12T12:10:37.659Z,13.10
2023-02-12T12:13:16.567Z,13.38
2023-02-12T12:16:08.554Z,13.02
2023-02-12T12:19:25.279Z,15.98
2023-02-12T12:22:08.483Z,14.38
2023-02-12T12:24:45.233Z,15.10
2023-02-12T12:27:45.164Z,16.38
2023-02-12T12:30:36.535Z,16.65
2023-02-12T12:33:10.314Z,15.75
2023-02-12T12:36:08.764Z,14.13
2023-02-12T12:39:06.912Z,9.27
2023-02-12T12:41:50.302Z,10.95
2023-02-12T12:44:38.746Z,12.52
2023-02-12T12:47:26.563Z,15.07
2023-02-12T12:49:58.302Z,15.35
2023-02-12T12:52:43.252Z,16.45
2023-02-12T12:55:31.550Z,11.77
2023-02-12T12:58:09.979Z,9.98
2023-02-12T13:00:42.267Z,11.83
2023-02-12T13:03:20.937Z,11.95
2023-02-12T13:06:04.079Z,7.45
2023-02-12T13:08:38.247Z,6.03
2023-02-12T13:11:13.773Z,7.80
2023-02-12T13:13:46.215Z,8.27
2023-02-12T13:16:30.317Z,6.90
2023-02-12T13:19:08.965Z,5.35
2023-02-12T13:21:43.322Z,6.20
2023-02-12T13:24:25.103Z,6.18
2023-02-12T13:26:56.396Z,6.90
2023-02-12T13:29:28.689Z,7.88
2023-02-12T13:32:00.300Z,7.32
2023-02-12T13:34:30.762Z,8.30
2023-02-12T13:37:01.121Z,8.20
2023-02-12T13:39:34.176Z,7.93
2023-02-12T13:42:06.853Z,6.82
2023-02-12T13:44:48.658Z,8.68
2023-02-12T13:47:33.597Z,7.15
2023-02-12T13:50:28.507Z,8.85
2023-02-12T13:53:02.319Z,6.75
2023-02-12T13:55:39.367Z,7.25
2023-02-12T13:58:31.181Z,7.22
2023-02-12T14:01:02.062Z,8.73
2023-02-12T14:03:30.883Z,9.02
2023-02-12T14:06:24.953Z,9.25
2023-02-12T14:08:54.706Z,7.53
2023-02-12T14:11:24.367Z,10.68
2023-02-12T14:13:58.489Z,7.95
2023-02-12T14:16:31.188Z,9.05
2023-02-12T14:19:35.082Z,9.05
2023-02-12T14:22:09.724Z,10.55
2023-02-12T14:24:36.328Z,9.73
2023-02-12T14:27:17.482Z,8.32
2023-02-12T14:30:11.923Z,11.20
2023-02-12T14:33:07.769Z,9.60
2023-02-12T14:35:42.272Z,9.60
2023-02-12T14:38:11.590Z,10.45
2023-02-12T14:40:47.012Z,9.63
2023-02-12T14:44:02.139Z,12.77
2023-02-12T14:46:28.718Z,10.95
2023-02-12T14:48:58.059Z,8.85
2023-02-12T14:51:46.809Z,10.18
2023-02-12T14:54:18.731Z,8.82
2023-02-12T14:56:48.616Z,11.07
2023-02-12T14:59:20.506Z,9.18
2023-02-12T15:01:48.791Z,8.23
2023-02-12T15:04:25.876Z,8.70
2023-02-12T15:06:57.674Z,6.78
2023-02-12T15:09:35.754Z,8.13
2023-02-12T15:12:12.735Z,6.43
2023-02-12T15:14:48.399Z,6.55
2023-02-12T15:17:22.999Z,6.47
2023-02-12T15:20:02.771Z,5.47
2023-02-12T15:22:35.574Z,4.72
2023-02-12T15:25:34.733Z,6.05
2023-02-12T15:28:30.516Z,6.68
2023-02-12T15:30:57.522Z,7.75
2023-02-12T15:33:30.405Z,7.78
2023-02-12T15:35:58.169Z,10.27
2023-02-12T15:38:41.581Z,9.25
2023-02-12T15:41:23.298Z,9.85
2023-02-12T15:43:49.856Z,9.68
2023-02-12T15:46:18.272Z,8.48
2023-02-12T15:48:45.301Z,10.73
2023-02-12T15:51:37.291Z,10.00
2023-02-12T15:54:06.725Z,10.10
2023-02-12T15:56:36.280Z,9.00
2023-02-12T15:59:04.071Z,9.77
2023-02-12T16:01:35.563Z,10.38
2023-02-12T16:04:06.696Z,11.95
2023-02-12T16:06:36.992Z,10.43
2023-02-12T16:09:13.119Z,10.00
2023-02-12T16:11:43.834Z,10.68
2023-02-12T16:14:22.675Z,11.48
2023-02-12T16:16:52.909Z,10.73
2023-02-12T16:19:23.643Z,11.98
2023-02-12T16:21:56.598Z,10.90
2023-02-12T16:24:31.124Z,11.27
2023-02-12T16:27:05.199Z,11.03
2023-02-12T16:29:33.959Z,11.45
2023-02-12T16:32:02.675Z,11.85
2023-02-12T16:34:36.161Z,11.23
2023-02-12T16:37:24.182Z,11.43
2023-02-12T16:39:53.800Z,13.02
2023-02-12T16:42:24.830Z,11.50
2023-02-12T16:44:51.422Z,12.83
2023-02-12T16:47:23.808Z,12.93
2023-02-12T16:50:00.295Z,15.93
2023-02-12T16:52:40.202Z,17.83
2023-02-12T16:55:14.029Z,16.10
2023-02-12T16:57:40.872Z,16.75
2023-02-12T17:00:09.913Z,17.80
2023-02-12T17:02:37.487Z,18.10
2023-02-12T17:05:07.180Z,18.48
2023-02-12T17:07:34.660Z,15.75
2023-02-12T17:10:01.475Z,17.90
2023-02-12T17:12:28.372Z,16.27
2023-02-12T17:14:55.993Z,12.80
2023-02-12T17:17:23.062Z,14.13
2023-02-12T17:19:50.010Z,17.15
2023-02-12T17:22:21.932Z,16.77
2023-02-12T17:24:51.756Z,18.03
2023-02-12T17:27:19.480Z,18.30
2023-02-12T17:29:46.500Z,18.83
2023-02-12T17:32:13.172Z,17.20
2023-02-12T17:34:48.449Z,16.65
2023-02-12T17:37:15.627Z,16.83
2023-02-12T17:39:42.161Z,17.40
2023-02-12T17:42:08.783Z,16.60
2023-02-12T17:44:35.345Z,14.20
2023-02-12T17:47:01.915Z,17.05
2023-02-12T17:49:30.180Z,15.50
2023-02-12T17:51:56.766Z,14.85
2023-02-12T17:54:23.434Z,13.43
2023-02-12T17:56:50.012Z,13.38
2023-02-12T17:59:16.890Z,18.60
2023-02-12T18:01:43.825Z,15.43
2023-02-12T18:04:10.969Z,13.45
2023-02-12T18:06:37.841Z,14.02
2023-02-12T18:09:05.229Z,14.45
2023-02-12T18:11:33.310Z,16.33
2023-02-12T18:14:00.526Z,14.65
2023-02-12T18:16:30.405Z,15.85
2023-02-12T18:18:57.355Z,17.07
2023-02-12T18:21:24.048Z,15.75
2023-02-12T18:23:50.605Z,14.63
2023-02-12T18:26:18.792Z,15.52
2023-02-12T18:28:46.206Z,12.77
2023-02-12T18:31:13.615Z,14.23
2023-02-12T18:33:40.505Z,15.02
2023-02-12T18:36:13.561Z,13.07
2023-02-12T18:38:42.406Z,14.27
2023-02-12T18:41:13.819Z,13.70
2023-02-12T18:43:40.419Z,12.80
2023-02-12T18:46:12.334Z,14.93
2023-02-12T18:48:39.167Z,14.32
2023-02-12T18:51:07.848Z,14.23
2023-02-12T18:53:34.924Z,13.97
2023-02-12T18:56:06.889Z,15.73
2023-02-12T18:58:34.239Z,14.55
2023-02-12T19:01:01.751Z,15.30
2023-02-12T19:03:28.372Z,16.17
2023-02-12T19:06:03.069Z,15.60
2023-02-12T19:08:29.808Z,15.95
2023-02-12T19:10:56.578Z,16.93
2023-02-12T19:13:24.066Z,14.20
2023-02-12T19:15:51.122Z,13.97
2023-02-12T19:18:18.046Z,15.47
2023-02-12T19:20:45.193Z,17.10
2023-02-12T19:23:11.763Z,17.83
2023-02-12T19:25:45.854Z,16.67
2023-02-12T19:28:13.256Z,19.10
2023-02-12T19:30:41.963Z,18.43
2023-02-12T19:33:09.116Z,18.97
2023-02-12T19:35:35.848Z,18.03
2023-02-12T19:38:03.243Z,17.63
2023-02-12T19:40:29.974Z,17.83
2023-02-12T19:43:02.108Z,18.83
2023-02-12T19:45:28.861Z,19.93
2023-02-12T19:47:55.435Z,18.77
2023-02-12T19:50:22.663Z,18.27
2023-02-12T19:52:49.357Z,18.77
2023-02-12T19:55:16.028Z,21.20
2023-02-12T19:57:43.045Z,19.10
2023-02-12T20:00:10.589Z,19.90
2023-02-12T20:02:37.355Z,19.47
2023-02-12T20:05:04.294Z,21.97
2023-02-12T20:07:31.301Z,21.47
2023-02-12T20:09:58.203Z,19.40
2023-02-12T20:12:25.249Z,20.67
2023-02-12T20:14:55.616Z,23.07
2023-02-12T20:17:22.320Z,22.23
2023-02-12T20:19:49.069Z,21.23
2023-02-12T20:22:16.134Z,23.17
2023-02-12T20:24:42.778Z,22.43
2023-02-12T20:27:11.056Z,20.40
2023-02-12T20:29:37.901Z,19.10
2023-02-12T20:32:04.916Z,22.13
2023-02-12T20:34:39.739Z,23.37
2023-02-12T20:37:17.244Z,25.67
2023-02-12T20:39:43.876Z,22.33
2023-02-12T20:42:11.924Z,23.00
2023-02-12T20:44:38.564Z,22.60
2023-02-12T20:47:05.160Z,23.33
2023-02-12T20:49:32.074Z,23.07
2023-02-12T20:51:58.788Z,22.97
2023-02-12T20:54:26.137Z,24.67
2023-02-12T20:56:52.933Z,26.87
2023-02-12T20:59:20.490Z,27.37
2023-02-12T21:01:48.249Z,25.13
2023-02-12T21:04:17.676Z,22.07
2023-02-12T21:06:46.060Z,21.80
2023-02-12T21:09:14.603Z,24.33
2023-02-12T21:11:45.259Z,23.83
2023-02-12T21:14:23.874Z,23.13
2023-02-12T21:16:56.125Z,23.27
2023-02-12T21:19:24.075Z,24.67
2023-02-12T21:21:51.799Z,26.13
2023-02-12T21:24:25.596Z,24.07
2023-02-12T21:26:54.690Z,23.47
2023-02-12T21:29:22.467Z,23.77
2023-02-12T21:31:51.247Z,24.37
2023-02-12T21:34:21.036Z,25.63
2023-02-12T21:36:48.830Z,25.00
2023-02-12T21:39:25.297Z,23.43
2023-02-12T21:41:55.163Z,23.10
2023-02-12T21:44:24.132Z,24.70
2023-02-12T21:46:51.580Z,24.60
2023-02-12T21:49:28.244Z,24.33
2023-02-12T21:52:02.007Z,24.43
2023-02-12T21:54:29.969Z,25.93
2023-02-12T21:56:58.532Z,22.73
2023-02-12T21:59:26.669Z,25.37
2023-02-12T22:01:56.175Z,25.53
2023-02-12T22:04:23.024Z,24.83
2023-02-12T22:06:52.499Z,22.50
2023-02-12T22:09:21.598Z,24.63
2023-02-12T22:11:48.578Z,24.63
2023-02-12T22:14:18.134Z,23.33
2023-02-12T22:16:45.168Z,26.03
2023-02-12T22:19:12.777Z,24.10
2023-02-12T22:21:41.642Z,23.93
2023-02-12T22:24:11.349Z,22.13
2023-02-12T22:26:37.983Z,25.47
2023-02-12T22:29:07.958Z,22.97
2023-02-12T22:31:37.032Z,24.07
2023-02-12T22:34:08.208Z,23.60
2023-02-12T22:36:37.002Z,24.93
2023-02-12T22:39:05.169Z,22.37
2023-02-12T22:41:32.770Z,22.57
2023-02-12T22:44:00.662Z,22.93
2023-02-12T22:46:28.118Z,19.37
2023-02-12T22:48:54.986Z,20.23
2023-02-12T22:51:22.764Z,19.87
2023-02-12T22:53:49.526Z,21.73
2023-02-12T22:56:16.647Z,18.73
2023-02-12T22:58:44.037Z,18.00
2023-02-12T23:01:13.679Z,20.93
2023-02-12T23:03:41.424Z,19.37
2023-02-12T23:06:12.040Z,19.23
2023-02-12T23:08:39.093Z,20.67
2023-02-12T23:11:07.183Z,19.40
2023-02-12T23:13:35.940Z,20.33
2023-02-12T23:16:02.595Z,19.50
2023-02-12T23:18:29.739Z,20.83
2023-02-12T23:20:56.724Z,19.63
2023-02-12T23:23:23.597Z,21.53
2023-02-12T23:25:50.528Z,19.70
2023-02-12T23:28:17.581Z,22.33
2023-02-12T23:30:44.409Z,20.13
2023-02-12T23:33:11.592Z,23.30
2023-02-12T23:35:38.682Z,23.10
2023-02-12T23:38:05.490Z,22.07
2023-02-12T23:40:33.238Z,19.97
2023-02-12T23:43:00.240Z,21.67
2023-02-12T23:45:28.382Z,22.53
2023-02-12T23:47:55.343Z,21.00
2023-02-12T23:50:22.306Z,20.83
2023-02-12T23:52:49.094Z,19.47
2023-02-12T23:55:16.277Z,21.53
2023-02-12T23:57:42.850Z,21.47
